sensor_id;sensor_type;location;lat;lon;timestamp;P1;durP1;ratioP1;P2;durP2;ratioP2
29414;SDS011;20303;48.302;11.914;2023-12-22T00:00:39;5.20;;;1.10;;
29414;SDS011;20303;48.302;11.914;2023-12-22T00:10:40;3.70;;;0.90;;
29414;SDS011;20303;48.302;11.914;2023-12-22T00:20:41;3.28;;;1.10;;
29414;SDS011;20303;48.302;11.914;2023-12-22T00:30:42;5.38;;;1.00;;
29414;SDS011;20303;48.302;11.914;2023-12-22T00:40:43;4.47;;;0.95;;
29414;SDS011;20303;48.302;11.914;2023-12-22T00:50:44;3.10;;;0.80;;
29414;SDS011;20303;48.302;11.914;2023-12-22T01:00:45;2.83;;;0.95;;
29414;SDS011;20303;48.302;11.914;2023-12-22T01:10:46;1.55;;;0.65;;
29414;SDS011;20303;48.302;11.914;2023-12-22T01:20:47;1.60;;;0.70;;
29414;SDS011;20303;48.302;11.914;2023-12-22T01:30:52;2.70;;;0.70;;
29414;SDS011;20303;48.302;11.914;2023-12-22T01:40:53;1.27;;;0.60;;
29414;SDS011;20303;48.302;11.914;2023-12-22T01:50:54;1.35;;;0.70;;
29414;SDS011;20303;48.302;11.914;2023-12-22T02:00:56;1.85;;;0.80;;
29414;SDS011;20303;48.302;11.914;2023-12-22T02:10:57;1.33;;;0.70;;
29414;SDS011;20303;48.302;11.914;2023-12-22T02:20:58;1.50;;;0.70;;
29414;SDS011;20303;48.302;11.914;2023-12-22T02:31:20;1.75;;;0.82;;
29414;SDS011;20303;48.302;11.914;2023-12-22T02:41:27;1.95;;;0.80;;
29414;SDS011;20303;48.302;11.914;2023-12-22T02:51:28;1.52;;;0.60;;
29414;SDS011;20303;48.302;11.914;2023-12-22T03:01:29;2.42;;;0.70;;
29414;SDS011;20303;48.302;11.914;2023-12-22T03:11:30;1.00;;;0.60;;
29414;SDS011;20303;48.302;11.914;2023-12-22T03:21:32;0.60;;;0.50;;
29414;SDS011;20303;48.302;11.914;2023-12-22T03:31:33;1.95;;;0.60;;
29414;SDS011;20303;48.302;11.914;2023-12-22T03:41:34;1.23;;;0.60;;
29414;SDS011;20303;48.302;11.914;2023-12-22T03:51:35;0.80;;;0.60;;
29414;SDS011;20303;48.302;11.914;2023-12-22T04:01:37;1.23;;;0.60;;
29414;SDS011;20303;48.302;11.914;2023-12-22T04:11:38;0.85;;;0.60;;
29414;SDS011;20303;48.302;11.914;2023-12-22T04:21:41;1.92;;;0.60;;
29414;SDS011;20303;48.302;11.914;2023-12-22T04:31:42;0.98;;;0.50;;
29414;SDS011;20303;48.302;11.914;2023-12-22T04:41:43;0.88;;;0.43;;
29414;SDS011;20303;48.302;11.914;2023-12-22T04:51:44;0.93;;;0.50;;
29414;SDS011;20303;48.302;11.914;2023-12-22T05:01:45;0.70;;;0.50;;
29414;SDS011;20303;48.302;11.914;2023-12-22T05:11:46;1.60;;;0.60;;
29414;SDS011;20303;48.302;11.914;2023-12-22T05:21:47;0.98;;;0.50;;
29414;SDS011;20303;48.302;11.914;2023-12-22T05:31:49;0.88;;;0.50;;
29414;SDS011;20303;48.302;11.914;2023-12-22T05:41:50;0.52;;;0.40;;
29414;SDS011;20303;48.302;11.914;2023-12-22T05:51:51;0.98;;;0.40;;
29414;SDS011;20303;48.302;11.914;2023-12-22T06:01:55;0.77;;;0.50;;
29414;SDS011;20303;48.302;11.914;2023-12-22T06:11:56;1.75;;;0.57;;
29414;SDS011;20303;48.302;11.914;2023-12-22T06:21:57;0.80;;;0.40;;
29414;SDS011;20303;48.302;11.914;2023-12-22T06:32:00;1.02;;;0.57;;
29414;SDS011;20303;48.302;11.914;2023-12-22T06:42:01;1.00;;;0.40;;
29414;SDS011;20303;48.302;11.914;2023-12-22T06:52:02;1.35;;;0.50;;
29414;SDS011;20303;48.302;11.914;2023-12-22T07:02:03;1.15;;;0.55;;
29414;SDS011;20303;48.302;11.914;2023-12-22T07:12:04;0.98;;;0.50;;
29414;SDS011;20303;48.302;11.914;2023-12-22T07:22:05;1.60;;;0.60;;
29414;SDS011;20303;48.302;11.914;2023-12-22T07:32:07;3.03;;;0.70;;
29414;SDS011;20303;48.302;11.914;2023-12-22T07:42:07;5.20;;;0.73;;
29414;SDS011;20303;48.302;11.914;2023-12-22T07:52:08;6.10;;;1.10;;
29414;SDS011;20303;48.302;11.914;2023-12-22T08:02:10;4.97;;;1.10;;
29414;SDS011;20303;48.302;11.914;2023-12-22T08:12:11;3.42;;;1.00;;
29414;SDS011;20303;48.302;11.914;2023-12-22T08:22:12;5.97;;;1.27;;
29414;SDS011;20303;48.302;11.914;2023-12-22T08:32:14;4.13;;;1.00;;
29414;SDS011;20303;48.302;11.914;2023-12-22T08:42:15;4.50;;;1.10;;
29414;SDS011;20303;48.302;11.914;2023-12-22T08:52:16;5.43;;;1.17;;
29414;SDS011;20303;48.302;11.914;2023-12-22T09:02:17;4.78;;;0.95;;
29414;SDS011;20303;48.302;11.914;2023-12-22T09:12:18;11.55;;;0.90;;
29414;SDS011;20303;48.302;11.914;2023-12-22T09:22:19;2.55;;;1.00;;
29414;SDS011;20303;48.302;11.914;2023-12-22T09:32:21;3.20;;;1.00;;
29414;SDS011;20303;48.302;11.914;2023-12-22T09:42:22;3.72;;;1.05;;
29414;SDS011;20303;48.302;11.914;2023-12-22T09:52:25;6.32;;;1.10;;
29414;SDS011;20303;48.302;11.914;2023-12-22T10:02:27;4.70;;;1.10;;
29414;SDS011;20303;48.302;11.914;2023-12-22T10:12:30;3.35;;;0.90;;
29414;SDS011;20303;48.302;11.914;2023-12-22T10:22:31;2.17;;;0.90;;
29414;SDS011;20303;48.302;11.914;2023-12-22T10:32:32;5.05;;;1.10;;
29414;SDS011;20303;48.302;11.914;2023-12-22T10:42:33;3.03;;;1.00;;
29414;SDS011;20303;48.302;11.914;2023-12-22T10:52:35;5.43;;;1.23;;
29414;SDS011;20303;48.302;11.914;2023-12-22T11:02:36;3.90;;;1.05;;
29414;SDS011;20303;48.302;11.914;2023-12-22T11:12:42;7.00;;;1.42;;
29414;SDS011;20303;48.302;11.914;2023-12-22T11:22:44;6.20;;;1.30;;
29414;SDS011;20303;48.302;11.914;2023-12-22T11:32:46;3.97;;;1.40;;
29414;SDS011;20303;48.302;11.914;2023-12-22T11:42:48;5.70;;;1.55;;
29414;SDS011;20303;48.302;11.914;2023-12-22T11:52:50;6.97;;;2.20;;
29414;SDS011;20303;48.302;11.914;2023-12-22T12:02:54;9.35;;;2.92;;
29414;SDS011;20303;48.302;11.914;2023-12-22T12:23:05;9.23;;;3.13;;
29414;SDS011;20303;48.302;11.914;2023-12-22T12:33:07;12.68;;;4.85;;
29414;SDS011;20303;48.302;11.914;2023-12-22T12:43:09;15.45;;;6.68;;
29414;SDS011;20303;48.302;11.914;2023-12-22T12:53:11;18.67;;;6.93;;
29414;SDS011;20303;48.302;11.914;2023-12-22T13:03:12;18.63;;;7.25;;
29414;SDS011;20303;48.302;11.914;2023-12-22T13:13:13;12.70;;;6.35;;
29414;SDS011;20303;48.302;11.914;2023-12-22T13:23:16;13.70;;;5.70;;
29414;SDS011;20303;48.302;11.914;2023-12-22T13:33:19;15.88;;;5.43;;
29414;SDS011;20303;48.302;11.914;2023-12-22T13:43:20;10.32;;;4.90;;
29414;SDS011;20303;48.302;11.914;2023-12-22T13:53:21;12.27;;;4.80;;
29414;SDS011;20303;48.302;11.914;2023-12-22T14:03:22;13.57;;;4.40;;
29414;SDS011;20303;48.302;11.914;2023-12-22T14:13:23;21.25;;;4.70;;
29414;SDS011;20303;48.302;11.914;2023-12-22T14:23:24;14.38;;;3.95;;
29414;SDS011;20303;48.302;11.914;2023-12-22T14:33:26;9.63;;;3.70;;
29414;SDS011;20303;48.302;11.914;2023-12-22T14:43:27;8.38;;;3.30;;
29414;SDS011;20303;48.302;11.914;2023-12-22T14:53:28;8.27;;;3.00;;
29414;SDS011;20303;48.302;11.914;2023-12-22T15:03:29;9.55;;;3.35;;
29414;SDS011;20303;48.302;11.914;2023-12-22T15:13:30;9.35;;;3.35;;
29414;SDS011;20303;48.302;11.914;2023-12-22T15:23:31;16.60;;;4.00;;
29414;SDS011;20303;48.302;11.914;2023-12-22T15:33:32;10.75;;;4.05;;
29414;SDS011;20303;48.302;11.914;2023-12-22T15:43:33;9.85;;;4.22;;
29414;SDS011;20303;48.302;11.914;2023-12-22T15:53:36;14.10;;;4.50;;
29414;SDS011;20303;48.302;11.914;2023-12-22T16:03:38;13.70;;;4.35;;
29414;SDS011;20303;48.302;11.914;2023-12-22T16:13:39;10.25;;;3.95;;
29414;SDS011;20303;48.302;11.914;2023-12-22T16:23:40;9.95;;;4.25;;
29414;SDS011;20303;48.302;11.914;2023-12-22T16:33:42;9.90;;;3.90;;
29414;SDS011;20303;48.302;11.914;2023-12-22T16:43:43;9.45;;;3.72;;
29414;SDS011;20303;48.302;11.914;2023-12-22T16:53:44;7.38;;;3.55;;
29414;SDS011;20303;48.302;11.914;2023-12-22T17:03:45;9.82;;;3.45;;
29414;SDS011;20303;48.302;11.914;2023-12-22T17:13:46;11.63;;;3.63;;
29414;SDS011;20303;48.302;11.914;2023-12-22T17:23:48;7.55;;;3.17;;
29414;SDS011;20303;48.302;11.914;2023-12-22T17:33:49;13.57;;;3.47;;
29414;SDS011;20303;48.302;11.914;2023-12-22T17:43:50;14.25;;;3.67;;
29414;SDS011;20303;48.302;11.914;2023-12-22T17:53:51;8.68;;;3.53;;
29414;SDS011;20303;48.302;11.914;2023-12-22T18:03:52;5.72;;;3.15;;
29414;SDS011;20303;48.302;11.914;2023-12-22T18:13:53;10.15;;;2.97;;
29414;SDS011;20303;48.302;11.914;2023-12-22T18:23:55;10.90;;;2.78;;
29414;SDS011;20303;48.302;11.914;2023-12-22T18:33:56;8.38;;;2.53;;
29414;SDS011;20303;48.302;11.914;2023-12-22T18:43:57;7.25;;;2.63;;
29414;SDS011;20303;48.302;11.914;2023-12-22T18:53:58;6.40;;;3.28;;
29414;SDS011;20303;48.302;11.914;2023-12-22T19:03:59;10.35;;;4.10;;
29414;SDS011;20303;48.302;11.914;2023-12-22T19:24:01;16.03;;;7.80;;
29414;SDS011;20303;48.302;11.914;2023-12-22T19:34:02;17.83;;;9.05;;
29414;SDS011;20303;48.302;11.914;2023-12-22T19:44:03;17.92;;;9.13;;
29414;SDS011;20303;48.302;11.914;2023-12-22T19:54:04;18.45;;;10.35;;
29414;SDS011;20303;48.302;11.914;2023-12-22T20:04:05;23.30;;;13.52;;
29414;SDS011;20303;48.302;11.914;2023-12-22T20:14:06;23.80;;;13.60;;
29414;SDS011;20303;48.302;11.914;2023-12-22T20:24:07;28.23;;;17.13;;
29414;SDS011;20303;48.302;11.914;2023-12-22T20:34:08;30.23;;;17.63;;
29414;SDS011;20303;48.302;11.914;2023-12-22T20:44:09;28.52;;;17.50;;
29414;SDS011;20303;48.302;11.914;2023-12-22T20:54:10;25.88;;;16.33;;
29414;SDS011;20303;48.302;11.914;2023-12-22T21:04:11;27.73;;;17.25;;
29414;SDS011;20303;48.302;11.914;2023-12-22T21:14:12;27.55;;;16.42;;
29414;SDS011;20303;48.302;11.914;2023-12-22T21:24:13;28.98;;;18.15;;
29414;SDS011;20303;48.302;11.914;2023-12-22T21:34:14;28.08;;;17.33;;
29414;SDS011;20303;48.302;11.914;2023-12-22T21:44:15;24.80;;;16.58;;
29414;SDS011;20303;48.302;11.914;2023-12-22T21:54:17;23.15;;;15.02;;
29414;SDS011;20303;48.302;11.914;2023-12-22T22:04:18;21.77;;;13.98;;
29414;SDS011;20303;48.302;11.914;2023-12-22T22:14:19;21.17;;;13.60;;
29414;SDS011;20303;48.302;11.914;2023-12-22T22:24:20;17.75;;;11.48;;
29414;SDS011;20303;48.302;11.914;2023-12-22T22:34:21;17.30;;;11.02;;
29414;SDS011;20303;48.302;11.914;2023-12-22T22:44:22;15.73;;;10.20;;
29414;SDS011;20303;48.302;11.914;2023-12-22T22:54:24;13.77;;;8.93;;
29414;SDS011;20303;48.302;11.914;2023-12-22T23:04:25;12.50;;;8.10;;
29414;SDS011;20303;48.302;11.914;2023-12-22T23:24:27;15.13;;;8.23;;
29414;SDS011;20303;48.302;11.914;2023-12-22T23:34:28;13.70;;;7.68;;
29414;SDS011;20303;48.302;11.914;2023-12-22T23:44:29;14.07;;;7.72;;
29414;SDS011;20303;48.302;11.914;2023-12-22T23:54:30;13.60;;;7.20;;
